sensor_id;sensor_type;location;lat;lon;timestamp;P1;durP1;ratioP1;P2;durP2;ratioP2
76978;SDS011;65911;47.502;19.148;2023-07-13T00:00:34;9.25;;;3.25;;
76978;SDS011;65911;47.502;19.148;2023-07-13T00:03:38;9.88;;;2.83;;
76978;SDS011;65911;47.502;19.148;2023-07-13T00:06:43;6.37;;;2.73;;
76978;SDS011;65911;47.502;19.148;2023-07-13T00:09:49;8.15;;;2.33;;
76978;SDS011;65911;47.502;19.148;2023-07-13T00:12:51;7.03;;;2.25;;
76978;SDS011;65911;47.502;19.148;2023-07-13T00:15:57;8.27;;;2.35;;
76978;SDS011;65911;47.502;19.148;2023-07-13T00:18:59;6.00;;;2.28;;
76978;SDS011;65911;47.502;19.148;2023-07-13T00:22:02;5.22;;;1.90;;
76978;SDS011;65911;47.502;19.148;2023-07-13T00:25:04;5.78;;;2.47;;
76978;SDS011;65911;47.502;19.148;2023-07-13T00:28:07;10.93;;;2.03;;
76978;SDS011;65911;47.502;19.148;2023-07-13T00:31:10;3.45;;;1.67;;
76978;SDS011;65911;47.502;19.148;2023-07-13T00:34:14;4.43;;;2.20;;
76978;SDS011;65911;47.502;19.148;2023-07-13T00:37:16;4.70;;;2.08;;
76978;SDS011;65911;47.502;19.148;2023-07-13T00:40:18;5.00;;;2.00;;
76978;SDS011;65911;47.502;19.148;2023-07-13T00:43:22;4.68;;;2.20;;
76978;SDS011;65911;47.502;19.148;2023-07-13T00:46:29;4.80;;;1.85;;
76978;SDS011;65911;47.502;19.148;2023-07-13T00:49:33;3.58;;;2.00;;
76978;SDS011;65911;47.502;19.148;2023-07-13T00:52:37;5.80;;;2.55;;
76978;SDS011;65911;47.502;19.148;2023-07-13T00:55:41;4.30;;;1.70;;
76978;SDS011;65911;47.502;19.148;2023-07-13T00:58:44;3.90;;;1.55;;
76978;SDS011;65911;47.502;19.148;2023-07-13T01:01:47;5.17;;;2.17;;
76978;SDS011;65911;47.502;19.148;2023-07-13T01:04:49;3.72;;;1.90;;
76978;SDS011;65911;47.502;19.148;2023-07-13T01:07:51;3.85;;;1.90;;
76978;SDS011;65911;47.502;19.148;2023-07-13T01:10:55;3.57;;;1.87;;
76978;SDS011;65911;47.502;19.148;2023-07-13T01:13:58;6.57;;;1.80;;
76978;SDS011;65911;47.502;19.148;2023-07-13T01:17:01;3.45;;;2.20;;
76978;SDS011;65911;47.502;19.148;2023-07-13T01:20:03;5.43;;;2.25;;
76978;SDS011;65911;47.502;19.148;2023-07-13T01:23:07;6.00;;;2.40;;
76978;SDS011;65911;47.502;19.148;2023-07-13T01:26:11;5.80;;;2.50;;
76978;SDS011;65911;47.502;19.148;2023-07-13T01:29:14;7.70;;;2.65;;
76978;SDS011;65911;47.502;19.148;2023-07-13T01:32:18;5.53;;;2.08;;
76978;SDS011;65911;47.502;19.148;2023-07-13T01:35:29;5.40;;;2.30;;
76978;SDS011;65911;47.502;19.148;2023-07-13T01:38:32;5.45;;;2.53;;
76978;SDS011;65911;47.502;19.148;2023-07-13T01:41:35;8.02;;;2.28;;
76978;SDS011;65911;47.502;19.148;2023-07-13T01:44:37;7.93;;;2.08;;
76978;SDS011;65911;47.502;19.148;2023-07-13T01:47:40;3.90;;;1.75;;
76978;SDS011;65911;47.502;19.148;2023-07-13T01:50:42;6.25;;;2.08;;
76978;SDS011;65911;47.502;19.148;2023-07-13T01:53:44;3.85;;;2.35;;
76978;SDS011;65911;47.502;19.148;2023-07-13T01:56:47;4.40;;;2.07;;
76978;SDS011;65911;47.502;19.148;2023-07-13T01:59:49;5.13;;;1.90;;
76978;SDS011;65911;47.502;19.148;2023-07-13T02:02:52;4.00;;;1.85;;
76978;SDS011;65911;47.502;19.148;2023-07-13T02:05:54;3.87;;;1.87;;
76978;SDS011;65911;47.502;19.148;2023-07-13T02:08:57;3.50;;;1.88;;
76978;SDS011;65911;47.502;19.148;2023-07-13T02:12:00;4.97;;;2.45;;
76978;SDS011;65911;47.502;19.148;2023-07-13T02:15:08;4.28;;;2.30;;
76978;SDS011;65911;47.502;19.148;2023-07-13T02:18:11;8.67;;;2.40;;
76978;SDS011;65911;47.502;19.148;2023-07-13T02:21:14;4.35;;;1.77;;
76978;SDS011;65911;47.502;19.148;2023-07-13T02:24:16;4.15;;;1.98;;
76978;SDS011;65911;47.502;19.148;2023-07-13T02:27:21;3.77;;;2.00;;
76978;SDS011;65911;47.502;19.148;2023-07-13T02:30:24;7.63;;;2.20;;
76978;SDS011;65911;47.502;19.148;2023-07-13T02:33:28;5.95;;;2.10;;
76978;SDS011;65911;47.502;19.148;2023-07-13T02:36:31;4.97;;;2.45;;
76978;SDS011;65911;47.502;19.148;2023-07-13T02:39:33;5.00;;;2.00;;
76978;SDS011;65911;47.502;19.148;2023-07-13T02:42:38;3.33;;;2.10;;
76978;SDS011;65911;47.502;19.148;2023-07-13T02:45:44;3.65;;;1.85;;
76978;SDS011;65911;47.502;19.148;2023-07-13T02:48:46;3.53;;;2.10;;
76978;SDS011;65911;47.502;19.148;2023-07-13T02:51:49;3.17;;;1.85;;
76978;SDS011;65911;47.502;19.148;2023-07-13T02:54:51;3.00;;;1.50;;
76978;SDS011;65911;47.502;19.148;2023-07-13T02:57:53;2.65;;;1.70;;
76978;SDS011;65911;47.502;19.148;2023-07-13T03:00:56;7.18;;;1.95;;
76978;SDS011;65911;47.502;19.148;2023-07-13T03:04:00;3.00;;;1.70;;
76978;SDS011;65911;47.502;19.148;2023-07-13T03:07:05;3.95;;;2.13;;
76978;SDS011;65911;47.502;19.148;2023-07-13T03:10:10;2.97;;;1.57;;
76978;SDS011;65911;47.502;19.148;2023-07-13T03:13:19;3.83;;;1.75;;
76978;SDS011;65911;47.502;19.148;2023-07-13T03:16:21;5.40;;;2.22;;
76978;SDS011;65911;47.502;19.148;2023-07-13T03:19:26;4.17;;;1.87;;
76978;SDS011;65911;47.502;19.148;2023-07-13T03:22:29;6.57;;;2.00;;
76978;SDS011;65911;47.502;19.148;2023-07-13T03:25:31;4.43;;;2.10;;
76978;SDS011;65911;47.502;19.148;2023-07-13T03:28:35;5.50;;;2.35;;
76978;SDS011;65911;47.502;19.148;2023-07-13T03:31:39;5.38;;;2.08;;
76978;SDS011;65911;47.502;19.148;2023-07-13T03:34:41;5.15;;;2.10;;
76978;SDS011;65911;47.502;19.148;2023-07-13T03:37:44;5.65;;;2.30;;
76978;SDS011;65911;47.502;19.148;2023-07-13T03:40:52;6.43;;;2.07;;
76978;SDS011;65911;47.502;19.148;2023-07-13T03:43:55;4.18;;;2.25;;
76978;SDS011;65911;47.502;19.148;2023-07-13T03:46:59;4.70;;;2.22;;
76978;SDS011;65911;47.502;19.148;2023-07-13T03:50:01;7.53;;;2.50;;
76978;SDS011;65911;47.502;19.148;2023-07-13T03:53:05;4.90;;;2.20;;
76978;SDS011;65911;47.502;19.148;2023-07-13T03:56:07;4.47;;;2.30;;
76978;SDS011;65911;47.502;19.148;2023-07-13T03:59:10;6.00;;;2.65;;
76978;SDS011;65911;47.502;19.148;2023-07-13T04:02:12;5.75;;;2.50;;
76978;SDS011;65911;47.502;19.148;2023-07-13T04:05:15;5.57;;;2.83;;
76978;SDS011;65911;47.502;19.148;2023-07-13T04:08:19;6.60;;;2.20;;
76978;SDS011;65911;47.502;19.148;2023-07-13T04:11:22;8.10;;;2.63;;
76978;SDS011;65911;47.502;19.148;2023-07-13T04:14:26;6.93;;;2.50;;
76978;SDS011;65911;47.502;19.148;2023-07-13T04:17:29;4.80;;;2.42;;
76978;SDS011;65911;47.502;19.148;2023-07-13T04:20:31;3.83;;;2.13;;
76978;SDS011;65911;47.502;19.148;2023-07-13T04:23:34;5.72;;;2.63;;
76978;SDS011;65911;47.502;19.148;2023-07-13T04:26:37;3.80;;;2.30;;
76978;SDS011;65911;47.502;19.148;2023-07-13T04:29:40;6.35;;;2.60;;
76978;SDS011;65911;47.502;19.148;2023-07-13T04:32:43;4.55;;;2.35;;
76978;SDS011;65911;47.502;19.148;2023-07-13T04:35:45;2.65;;;2.03;;
76978;SDS011;65911;47.502;19.148;2023-07-13T04:38:51;3.90;;;2.20;;
76978;SDS011;65911;47.502;19.148;2023-07-13T04:41:53;2.53;;;1.97;;
76978;SDS011;65911;47.502;19.148;2023-07-13T04:44:57;4.32;;;1.80;;
76978;SDS011;65911;47.502;19.148;2023-07-13T04:47:59;4.40;;;2.03;;
76978;SDS011;65911;47.502;19.148;2023-07-13T04:51:01;3.97;;;2.13;;
76978;SDS011;65911;47.502;19.148;2023-07-13T04:54:04;3.42;;;2.20;;
76978;SDS011;65911;47.502;19.148;2023-07-13T04:57:06;5.38;;;2.03;;
76978;SDS011;65911;47.502;19.148;2023-07-13T05:00:09;5.82;;;2.40;;
76978;SDS011;65911;47.502;19.148;2023-07-13T05:03:12;3.33;;;1.80;;
76978;SDS011;65911;47.502;19.148;2023-07-13T05:06:15;7.80;;;2.17;;
76978;SDS011;65911;47.502;19.148;2023-07-13T05:09:17;7.25;;;2.20;;
76978;SDS011;65911;47.502;19.148;2023-07-13T05:12:19;4.75;;;2.05;;
76978;SDS011;65911;47.502;19.148;2023-07-13T05:15:22;4.50;;;2.08;;
76978;SDS011;65911;47.502;19.148;2023-07-13T05:18:25;5.95;;;2.10;;
76978;SDS011;65911;47.502;19.148;2023-07-13T05:21:27;5.95;;;2.20;;
76978;SDS011;65911;47.502;19.148;2023-07-13T05:24:29;3.67;;;2.00;;
76978;SDS011;65911;47.502;19.148;2023-07-13T05:27:32;3.30;;;1.63;;
76978;SDS011;65911;47.502;19.148;2023-07-13T05:30:34;7.00;;;1.90;;
76978;SDS011;65911;47.502;19.148;2023-07-13T05:33:37;5.63;;;1.80;;
76978;SDS011;65911;47.502;19.148;2023-07-13T05:36:39;4.28;;;1.70;;
76978;SDS011;65911;47.502;19.148;2023-07-13T05:39:42;7.10;;;1.90;;
76978;SDS011;65911;47.502;19.148;2023-07-13T05:42:46;3.30;;;1.40;;
76978;SDS011;65911;47.502;19.148;2023-07-13T05:45:48;6.80;;;1.50;;
76978;SDS011;65911;47.502;19.148;2023-07-13T05:48:51;4.18;;;1.70;;
76978;SDS011;65911;47.502;19.148;2023-07-13T05:51:53;3.13;;;1.52;;
76978;SDS011;65911;47.502;19.148;2023-07-13T05:54:56;2.60;;;1.30;;
76978;SDS011;65911;47.502;19.148;2023-07-13T05:57:58;2.97;;;1.20;;
76978;SDS011;65911;47.502;19.148;2023-07-13T06:01:05;4.15;;;1.60;;
76978;SDS011;65911;47.502;19.148;2023-07-13T06:04:09;4.43;;;1.30;;
76978;SDS011;65911;47.502;19.148;2023-07-13T06:07:11;5.18;;;1.00;;
76978;SDS011;65911;47.502;19.148;2023-07-13T06:10:13;4.35;;;1.00;;
76978;SDS011;65911;47.502;19.148;2023-07-13T06:13:15;4.97;;;1.10;;
76978;SDS011;65911;47.502;19.148;2023-07-13T06:16:18;3.43;;;1.37;;
76978;SDS011;65911;47.502;19.148;2023-07-13T06:19:20;4.07;;;1.10;;
76978;SDS011;65911;47.502;19.148;2023-07-13T06:22:22;3.15;;;0.77;;
76978;SDS011;65911;47.502;19.148;2023-07-13T06:25:25;2.28;;;1.00;;
76978;SDS011;65911;47.502;19.148;2023-07-13T06:28:29;2.80;;;0.63;;
76978;SDS011;65911;47.502;19.148;2023-07-13T06:31:33;2.33;;;0.60;;
76978;SDS011;65911;47.502;19.148;2023-07-13T06:34:35;3.75;;;0.90;;
76978;SDS011;65911;47.502;19.148;2023-07-13T06:37:38;2.33;;;0.73;;
76978;SDS011;65911;47.502;19.148;2023-07-13T06:40:41;2.83;;;1.17;;
76978;SDS011;65911;47.502;19.148;2023-07-13T06:43:46;2.90;;;0.77;;
76978;SDS011;65911;47.502;19.148;2023-07-13T06:46:48;1.98;;;0.85;;
76978;SDS011;65911;47.502;19.148;2023-07-13T06:49:51;2.97;;;1.00;;
76978;SDS011;65911;47.502;19.148;2023-07-13T06:52:53;1.75;;;0.90;;
76978;SDS011;65911;47.502;19.148;2023-07-13T06:55:55;2.42;;;0.82;;
76978;SDS011;65911;47.502;19.148;2023-07-13T06:58:57;1.70;;;0.60;;
76978;SDS011;65911;47.502;19.148;2023-07-13T07:02:00;2.22;;;0.57;;
76978;SDS011;65911;47.502;19.148;2023-07-13T07:05:02;3.05;;;0.70;;
76978;SDS011;65911;47.502;19.148;2023-07-13T07:08:04;2.30;;;0.80;;
76978;SDS011;65911;47.502;19.148;2023-07-13T07:11:14;1.80;;;0.50;;
76978;SDS011;65911;47.502;19.148;2023-07-13T07:14:19;1.23;;;0.40;;
76978;SDS011;65911;47.502;19.148;2023-07-13T07:17:21;1.88;;;0.73;;
76978;SDS011;65911;47.502;19.148;2023-07-13T07:20:26;3.17;;;0.50;;
76978;SDS011;65911;47.502;19.148;2023-07-13T07:23:28;1.80;;;0.65;;
76978;SDS011;65911;47.502;19.148;2023-07-13T07:26:31;1.88;;;0.75;;
76978;SDS011;65911;47.502;19.148;2023-07-13T07:29:53;0.75;;;0.45;;
76978;SDS011;65911;47.502;19.148;2023-07-13T07:33:15;2.30;;;0.70;;
76978;SDS011;65911;47.502;19.148;2023-07-13T07:36:18;3.97;;;0.70;;
76978;SDS011;65911;47.502;19.148;2023-07-13T07:39:23;1.70;;;0.70;;
76978;SDS011;65911;47.502;19.148;2023-07-13T07:42:25;2.23;;;0.47;;
76978;SDS011;65911;47.502;19.148;2023-07-13T07:45:27;2.45;;;0.60;;
76978;SDS011;65911;47.502;19.148;2023-07-13T07:48:30;1.48;;;0.80;;
76978;SDS011;65911;47.502;19.148;2023-07-13T07:51:32;3.65;;;0.95;;
76978;SDS011;65911;47.502;19.148;2023-07-13T07:54:35;2.60;;;0.80;;
76978;SDS011;65911;47.502;19.148;2023-07-13T07:57:40;5.05;;;0.55;;
76978;SDS011;65911;47.502;19.148;2023-07-13T08:00:45;4.35;;;0.77;;
76978;SDS011;65911;47.502;19.148;2023-07-13T08:03:50;3.90;;;1.00;;
76978;SDS011;65911;47.502;19.148;2023-07-13T08:06:55;3.33;;;0.93;;
76978;SDS011;65911;47.502;19.148;2023-07-13T08:10:01;4.38;;;0.95;;
76978;SDS011;65911;47.502;19.148;2023-07-13T08:13:03;1.70;;;0.60;;
76978;SDS011;65911;47.502;19.148;2023-07-13T08:16:08;2.10;;;0.60;;
76978;SDS011;65911;47.502;19.148;2023-07-13T08:19:10;3.97;;;0.60;;
76978;SDS011;65911;47.502;19.148;2023-07-13T08:22:15;3.83;;;1.00;;
76978;SDS011;65911;47.502;19.148;2023-07-13T08:25:17;3.25;;;1.20;;
76978;SDS011;65911;47.502;19.148;2023-07-13T08:28:20;1.50;;;0.70;;
76978;SDS011;65911;47.502;19.148;2023-07-13T08:31:23;1.05;;;0.70;;
76978;SDS011;65911;47.502;19.148;2023-07-13T08:34:25;2.42;;;0.60;;
76978;SDS011;65911;47.502;19.148;2023-07-13T08:37:27;2.87;;;1.13;;
76978;SDS011;65911;47.502;19.148;2023-07-13T08:40:30;1.58;;;0.60;;
76978;SDS011;65911;47.502;19.148;2023-07-13T08:43:35;2.00;;;0.60;;
76978;SDS011;65911;47.502;19.148;2023-07-13T08:46:38;3.58;;;0.70;;
76978;SDS011;65911;47.502;19.148;2023-07-13T08:49:43;3.57;;;0.70;;
76978;SDS011;65911;47.502;19.148;2023-07-13T08:52:45;3.10;;;0.80;;
76978;SDS011;65911;47.502;19.148;2023-07-13T08:55:48;2.17;;;0.90;;
76978;SDS011;65911;47.502;19.148;2023-07-13T08:59:14;1.73;;;0.93;;
76978;SDS011;65911;47.502;19.148;2023-07-13T09:02:26;2.70;;;0.70;;
76978;SDS011;65911;47.502;19.148;2023-07-13T09:05:37;2.42;;;1.08;;
76978;SDS011;65911;47.502;19.148;2023-07-13T09:08:44;3.08;;;0.88;;
76978;SDS011;65911;47.502;19.148;2023-07-13T09:12:17;5.15;;;1.50;;
76978;SDS011;65911;47.502;19.148;2023-07-13T09:15:25;4.10;;;1.20;;
76978;SDS011;65911;47.502;19.148;2023-07-13T09:18:37;4.72;;;1.20;;
76978;SDS011;65911;47.502;19.148;2023-07-13T09:21:42;2.15;;;1.10;;
76978;SDS011;65911;47.502;19.148;2023-07-13T09:28:01;2.97;;;1.40;;
76978;SDS011;65911;47.502;19.148;2023-07-13T09:31:24;1.55;;;1.08;;
76978;SDS011;65911;47.502;19.148;2023-07-13T09:34:38;1.80;;;1.10;;
76978;SDS011;65911;47.502;19.148;2023-07-13T09:37:40;3.58;;;1.27;;
76978;SDS011;65911;47.502;19.148;2023-07-13T09:44:32;2.33;;;1.35;;
76978;SDS011;65911;47.502;19.148;2023-07-13T09:47:38;4.72;;;0.90;;
76978;SDS011;65911;47.502;19.148;2023-07-13T09:50:42;4.20;;;1.20;;
76978;SDS011;65911;47.502;19.148;2023-07-13T09:53:45;3.10;;;1.27;;
76978;SDS011;65911;47.502;19.148;2023-07-13T09:56:47;2.97;;;1.10;;
76978;SDS011;65911;47.502;19.148;2023-07-13T09:59:50;2.42;;;0.82;;
76978;SDS011;65911;47.502;19.148;2023-07-13T10:03:01;4.53;;;1.10;;
76978;SDS011;65911;47.502;19.148;2023-07-13T10:09:17;3.70;;;1.42;;
76978;SDS011;65911;47.502;19.148;2023-07-13T10:12:21;4.57;;;1.40;;
76978;SDS011;65911;47.502;19.148;2023-07-13T10:15:26;3.50;;;1.20;;
76978;SDS011;65911;47.502;19.148;2023-07-13T10:18:29;4.15;;;1.48;;
76978;SDS011;65911;47.502;19.148;2023-07-13T10:21:38;3.20;;;1.42;;
76978;SDS011;65911;47.502;19.148;2023-07-13T10:24:44;3.78;;;1.45;;
76978;SDS011;65911;47.502;19.148;2023-07-13T10:27:46;2.83;;;1.30;;
76978;SDS011;65911;47.502;19.148;2023-07-13T10:30:51;3.58;;;1.70;;
76978;SDS011;65911;47.502;19.148;2023-07-13T10:33:55;3.65;;;1.77;;
76978;SDS011;65911;47.502;19.148;2023-07-13T10:36:57;3.80;;;1.40;;
76978;SDS011;65911;47.502;19.148;2023-07-13T10:40:00;5.47;;;2.03;;
76978;SDS011;65911;47.502;19.148;2023-07-13T10:43:04;3.60;;;1.42;;
76978;SDS011;65911;47.502;19.148;2023-07-13T10:46:12;2.28;;;1.27;;
76978;SDS011;65911;47.502;19.148;2023-07-13T10:49:17;4.53;;;1.48;;
76978;SDS011;65911;47.502;19.148;2023-07-13T11:02:21;2.20;;;1.58;;
76978;SDS011;65911;47.502;19.148;2023-07-13T11:05:30;2.77;;;1.40;;
76978;SDS011;65911;47.502;19.148;2023-07-13T11:08:50;1.35;;;1.20;;
76978;SDS011;65911;47.502;19.148;2023-07-13T11:11:56;4.88;;;1.70;;
76978;SDS011;65911;47.502;19.148;2023-07-13T11:18:04;2.30;;;1.00;;
76978;SDS011;65911;47.502;19.148;2023-07-13T11:21:23;2.50;;;1.35;;
76978;SDS011;65911;47.502;19.148;2023-07-13T11:31:13;1.97;;;1.10;;
76978;SDS011;65911;47.502;19.148;2023-07-13T11:34:21;3.63;;;1.15;;
76978;SDS011;65911;47.502;19.148;2023-07-13T11:37:32;1.80;;;0.98;;
76978;SDS011;65911;47.502;19.148;2023-07-13T11:40:34;1.87;;;1.20;;
76978;SDS011;65911;47.502;19.148;2023-07-13T11:43:37;3.22;;;1.33;;
76978;SDS011;65911;47.502;19.148;2023-07-13T11:46:43;3.60;;;1.10;;
76978;SDS011;65911;47.502;19.148;2023-07-13T11:49:51;2.08;;;0.90;;
76978;SDS011;65911;47.502;19.148;2023-07-13T11:52:55;2.77;;;1.10;;
76978;SDS011;65911;47.502;19.148;2023-07-13T11:55:58;1.57;;;1.03;;
76978;SDS011;65911;47.502;19.148;2023-07-13T11:59:04;3.40;;;0.85;;
76978;SDS011;65911;47.502;19.148;2023-07-13T12:02:16;3.20;;;1.17;;
76978;SDS011;65911;47.502;19.148;2023-07-13T12:05:32;2.47;;;1.00;;
76978;SDS011;65911;47.502;19.148;2023-07-13T12:08:38;2.63;;;1.10;;
76978;SDS011;65911;47.502;19.148;2023-07-13T12:11:42;2.00;;;0.90;;
76978;SDS011;65911;47.502;19.148;2023-07-13T12:14:45;1.83;;;0.85;;
76978;SDS011;65911;47.502;19.148;2023-07-13T12:17:47;2.13;;;1.10;;
76978;SDS011;65911;47.502;19.148;2023-07-13T12:20:50;1.60;;;0.93;;
76978;SDS011;65911;47.502;19.148;2023-07-13T12:23:54;2.53;;;1.27;;
76978;SDS011;65911;47.502;19.148;2023-07-13T12:27:01;1.90;;;0.93;;
76978;SDS011;65911;47.502;19.148;2023-07-13T12:30:20;2.20;;;1.10;;
76978;SDS011;65911;47.502;19.148;2023-07-13T12:33:33;1.60;;;0.87;;
76978;SDS011;65911;47.502;19.148;2023-07-13T12:36:37;1.48;;;1.10;;
76978;SDS011;65911;47.502;19.148;2023-07-13T12:39:46;2.20;;;1.00;;
76978;SDS011;65911;47.502;19.148;2023-07-13T12:42:50;1.88;;;1.13;;
76978;SDS011;65911;47.502;19.148;2023-07-13T12:46:04;1.87;;;1.30;;
76978;SDS011;65911;47.502;19.148;2023-07-13T12:49:07;2.72;;;1.38;;
76978;SDS011;65911;47.502;19.148;2023-07-13T12:52:21;1.92;;;1.20;;
76978;SDS011;65911;47.502;19.148;2023-07-13T12:55:25;3.13;;;1.13;;
76978;SDS011;65911;47.502;19.148;2023-07-13T12:58:41;1.25;;;1.00;;
76978;SDS011;65911;47.502;19.148;2023-07-13T13:01:45;4.45;;;1.50;;
76978;SDS011;65911;47.502;19.148;2023-07-13T13:04:48;2.45;;;1.27;;
76978;SDS011;65911;47.502;19.148;2023-07-13T13:07:50;2.37;;;1.30;;
76978;SDS011;65911;47.502;19.148;2023-07-13T13:10:53;3.40;;;1.25;;
76978;SDS011;65911;47.502;19.148;2023-07-13T13:13:55;2.47;;;1.30;;
76978;SDS011;65911;47.502;19.148;2023-07-13T13:16:57;2.15;;;1.23;;
76978;SDS011;65911;47.502;19.148;2023-07-13T13:20:00;1.97;;;1.27;;
76978;SDS011;65911;47.502;19.148;2023-07-13T13:23:02;2.47;;;1.20;;
76978;SDS011;65911;47.502;19.148;2023-07-13T13:26:08;2.35;;;1.08;;
76978;SDS011;65911;47.502;19.148;2023-07-13T13:29:14;3.97;;;1.13;;
76978;SDS011;65911;47.502;19.148;2023-07-13T13:32:18;2.83;;;1.33;;
76978;SDS011;65911;47.502;19.148;2023-07-13T13:35:20;1.90;;;0.90;;
76978;SDS011;65911;47.502;19.148;2023-07-13T13:38:26;2.42;;;1.10;;
76978;SDS011;65911;47.502;19.148;2023-07-13T13:41:29;2.33;;;1.40;;
76978;SDS011;65911;47.502;19.148;2023-07-13T13:44:32;2.77;;;1.30;;
76978;SDS011;65911;47.502;19.148;2023-07-13T13:47:34;2.40;;;1.30;;
76978;SDS011;65911;47.502;19.148;2023-07-13T13:50:38;1.73;;;1.05;;
76978;SDS011;65911;47.502;19.148;2023-07-13T13:53:40;1.57;;;1.47;;
76978;SDS011;65911;47.502;19.148;2023-07-13T13:56:43;1.47;;;1.30;;
76978;SDS011;65911;47.502;19.148;2023-07-13T13:59:46;1.38;;;1.10;;
76978;SDS011;65911;47.502;19.148;2023-07-13T14:02:49;1.42;;;1.10;;
76978;SDS011;65911;47.502;19.148;2023-07-13T14:05:53;2.23;;;1.10;;
76978;SDS011;65911;47.502;19.148;2023-07-13T14:08:56;2.00;;;1.10;;
76978;SDS011;65911;47.502;19.148;2023-07-13T14:11:58;2.10;;;1.50;;
76978;SDS011;65911;47.502;19.148;2023-07-13T14:15:01;1.92;;;1.10;;
76978;SDS011;65911;47.502;19.148;2023-07-13T14:18:03;2.20;;;1.20;;
76978;SDS011;65911;47.502;19.148;2023-07-13T14:21:11;1.33;;;1.20;;
76978;SDS011;65911;47.502;19.148;2023-07-13T14:24:15;2.42;;;1.20;;
76978;SDS011;65911;47.502;19.148;2023-07-13T14:27:17;2.40;;;1.40;;
76978;SDS011;65911;47.502;19.148;2023-07-13T14:30:20;1.88;;;1.27;;
76978;SDS011;65911;47.502;19.148;2023-07-13T14:33:23;2.70;;;1.47;;
76978;SDS011;65911;47.502;19.148;2023-07-13T14:36:34;2.10;;;1.17;;
76978;SDS011;65911;47.502;19.148;2023-07-13T14:39:44;1.60;;;1.10;;
76978;SDS011;65911;47.502;19.148;2023-07-13T14:42:47;2.20;;;1.50;;
76978;SDS011;65911;47.502;19.148;2023-07-13T14:45:49;4.13;;;1.27;;
76978;SDS011;65911;47.502;19.148;2023-07-13T14:48:53;3.75;;;1.27;;
76978;SDS011;65911;47.502;19.148;2023-07-13T14:52:10;2.88;;;1.30;;
76978;SDS011;65911;47.502;19.148;2023-07-13T14:55:26;1.95;;;1.40;;
76978;SDS011;65911;47.502;19.148;2023-07-13T14:58:29;4.93;;;1.97;;
76978;SDS011;65911;47.502;19.148;2023-07-13T15:01:34;3.00;;;1.40;;
76978;SDS011;65911;47.502;19.148;2023-07-13T15:04:38;3.28;;;1.27;;
76978;SDS011;65911;47.502;19.148;2023-07-13T15:07:40;3.50;;;1.70;;
76978;SDS011;65911;47.502;19.148;2023-07-13T15:10:43;2.97;;;1.80;;
76978;SDS011;65911;47.502;19.148;2023-07-13T15:13:45;3.00;;;1.50;;
76978;SDS011;65911;47.502;19.148;2023-07-13T15:16:52;2.03;;;1.40;;
76978;SDS011;65911;47.502;19.148;2023-07-13T15:19:55;2.10;;;1.50;;
76978;SDS011;65911;47.502;19.148;2023-07-13T15:22:58;3.50;;;1.70;;
76978;SDS011;65911;47.502;19.148;2023-07-13T15:26:00;2.88;;;1.60;;
76978;SDS011;65911;47.502;19.148;2023-07-13T15:29:03;3.08;;;1.30;;
76978;SDS011;65911;47.502;19.148;2023-07-13T15:32:08;4.20;;;1.57;;
76978;SDS011;65911;47.502;19.148;2023-07-13T15:35:20;4.63;;;1.45;;
76978;SDS011;65911;47.502;19.148;2023-07-13T15:38:25;2.50;;;1.33;;
76978;SDS011;65911;47.502;19.148;2023-07-13T15:41:30;1.92;;;1.25;;
76978;SDS011;65911;47.502;19.148;2023-07-13T15:44:33;4.07;;;1.50;;
76978;SDS011;65911;47.502;19.148;2023-07-13T15:47:35;2.23;;;1.37;;
76978;SDS011;65911;47.502;19.148;2023-07-13T15:50:50;1.60;;;1.50;;
76978;SDS011;65911;47.502;19.148;2023-07-13T15:53:55;2.47;;;1.38;;
76978;SDS011;65911;47.502;19.148;2023-07-13T15:57:00;3.63;;;1.17;;
76978;SDS011;65911;47.502;19.148;2023-07-13T16:00:03;3.40;;;1.30;;
76978;SDS011;65911;47.502;19.148;2023-07-13T16:03:14;2.55;;;1.30;;
76978;SDS011;65911;47.502;19.148;2023-07-13T16:06:18;2.25;;;1.63;;
76978;SDS011;65911;47.502;19.148;2023-07-13T16:09:26;3.60;;;1.43;;
76978;SDS011;65911;47.502;19.148;2023-07-13T16:12:29;5.78;;;1.35;;
76978;SDS011;65911;47.502;19.148;2023-07-13T16:15:32;4.88;;;1.52;;
76978;SDS011;65911;47.502;19.148;2023-07-13T16:18:34;3.23;;;1.73;;
76978;SDS011;65911;47.502;19.148;2023-07-13T16:21:46;2.58;;;1.38;;
76978;SDS011;65911;47.502;19.148;2023-07-13T16:24:50;2.58;;;1.30;;
76978;SDS011;65911;47.502;19.148;2023-07-13T16:27:57;1.90;;;1.40;;
76978;SDS011;65911;47.502;19.148;2023-07-13T16:31:02;2.40;;;1.60;;
76978;SDS011;65911;47.502;19.148;2023-07-13T16:34:06;3.08;;;1.45;;
76978;SDS011;65911;47.502;19.148;2023-07-13T16:37:16;3.85;;;1.80;;
76978;SDS011;65911;47.502;19.148;2023-07-13T16:43:25;4.25;;;1.63;;
76978;SDS011;65911;47.502;19.148;2023-07-13T16:46:27;3.80;;;1.38;;
76978;SDS011;65911;47.502;19.148;2023-07-13T16:49:34;2.22;;;1.23;;
76978;SDS011;65911;47.502;19.148;2023-07-13T16:52:39;4.53;;;1.70;;
76978;SDS011;65911;47.502;19.148;2023-07-13T16:55:41;2.90;;;1.38;;
76978;SDS011;65911;47.502;19.148;2023-07-13T16:58:43;2.97;;;1.48;;
76978;SDS011;65911;47.502;19.148;2023-07-13T17:01:46;1.92;;;1.02;;
76978;SDS011;65911;47.502;19.148;2023-07-13T17:04:48;2.50;;;1.30;;
76978;SDS011;65911;47.502;19.148;2023-07-13T17:07:54;2.90;;;1.33;;
76978;SDS011;65911;47.502;19.148;2023-07-13T17:10:57;4.22;;;1.50;;
76978;SDS011;65911;47.502;19.148;2023-07-13T17:14:01;3.25;;;1.30;;
76978;SDS011;65911;47.502;19.148;2023-07-13T17:17:12;2.13;;;1.47;;
76978;SDS011;65911;47.502;19.148;2023-07-13T17:20:21;2.30;;;1.10;;
76978;SDS011;65911;47.502;19.148;2023-07-13T17:23:26;3.35;;;1.92;;
76978;SDS011;65911;47.502;19.148;2023-07-13T17:26:28;3.13;;;1.60;;
76978;SDS011;65911;47.502;19.148;2023-07-13T17:29:31;2.27;;;1.27;;
76978;SDS011;65911;47.502;19.148;2023-07-13T17:32:34;1.85;;;1.23;;
76978;SDS011;65911;47.502;19.148;2023-07-13T17:35:39;4.00;;;1.30;;
76978;SDS011;65911;47.502;19.148;2023-07-13T17:38:42;2.05;;;1.50;;
76978;SDS011;65911;47.502;19.148;2023-07-13T17:41:48;2.35;;;1.50;;
76978;SDS011;65911;47.502;19.148;2023-07-13T17:44:50;3.60;;;1.48;;
76978;SDS011;65911;47.502;19.148;2023-07-13T17:47:53;4.00;;;1.60;;
76978;SDS011;65911;47.502;19.148;2023-07-13T17:50:56;5.20;;;1.60;;
76978;SDS011;65911;47.502;19.148;2023-07-13T17:54:04;2.42;;;1.17;;
76978;SDS011;65911;47.502;19.148;2023-07-13T17:57:14;2.47;;;1.50;;
76978;SDS011;65911;47.502;19.148;2023-07-13T18:00:17;3.47;;;1.45;;
76978;SDS011;65911;47.502;19.148;2023-07-13T18:03:29;5.10;;;1.30;;
76978;SDS011;65911;47.502;19.148;2023-07-13T18:06:36;2.75;;;1.20;;
76978;SDS011;65911;47.502;19.148;2023-07-13T18:09:39;1.85;;;1.58;;
76978;SDS011;65911;47.502;19.148;2023-07-13T18:12:43;3.47;;;1.30;;
76978;SDS011;65911;47.502;19.148;2023-07-13T18:15:45;1.95;;;1.00;;
76978;SDS011;65911;47.502;19.148;2023-07-13T18:18:47;3.72;;;1.10;;
76978;SDS011;65911;47.502;19.148;2023-07-13T18:21:50;3.42;;;1.10;;
76978;SDS011;65911;47.502;19.148;2023-07-13T18:24:53;3.07;;;1.67;;
76978;SDS011;65911;47.502;19.148;2023-07-13T18:27:55;2.27;;;1.37;;
76978;SDS011;65911;47.502;19.148;2023-07-13T18:30:58;2.38;;;1.20;;
76978;SDS011;65911;47.502;19.148;2023-07-13T18:34:01;2.63;;;1.20;;
76978;SDS011;65911;47.502;19.148;2023-07-13T18:37:24;2.73;;;0.87;;
76978;SDS011;65911;47.502;19.148;2023-07-13T18:40:27;3.08;;;0.77;;
76978;SDS011;65911;47.502;19.148;2023-07-13T18:43:31;3.28;;;1.00;;
76978;SDS011;65911;47.502;19.148;2023-07-13T18:46:33;1.30;;;1.00;;